createdAt,value
2018-08-14T00:01:57.463Z,21.14
2018-08-14T00:04:27.506Z,21.17
2018-08-14T00:06:56.769Z,21.19
2018-08-14T00:09:26.375Z,21.07
2018-08-14T00:11:55.664Z,21.13
2018-08-14T00:14:25.291Z,21.15
2018-08-14T00:16:55.576Z,21.07
2018-08-14T00:19:25.062Z,21.14
2018-08-14T00:21:54.424Z,21.16
2018-08-14T00:24:24.142Z,21.22
2018-08-14T00:26:53.614Z,21.11
2018-08-14T00:29:23.223Z,21.17
2018-08-14T00:31:54.578Z,21.23
2018-08-14T00:34:23.912Z,21.16
2018-08-14T00:36:54.299Z,21.17
2018-08-14T00:39:24.046Z,21.26
2018-08-14T00:41:53.489Z,21.32
2018-08-14T00:44:22.820Z,21.25
2018-08-14T00:46:53.599Z,21.07
2018-08-14T00:49:22.951Z,21.16
2018-08-14T00:51:54.776Z,21.08
2018-08-14T00:54:24.861Z,21.04
2018-08-14T00:56:54.273Z,21.04
2018-08-14T00:59:24.053Z,21.05
2018-08-14T01:01:54.469Z,21.08
2018-08-14T01:04:23.948Z,21.09
2018-08-14T01:06:53.143Z,21.12
2018-08-14T01:09:22.710Z,21.14
2018-08-14T01:11:52.374Z,21.15
2018-08-14T01:14:22.631Z,21.19
2018-08-14T01:16:52.676Z,21.04
2018-08-14T01:19:22.079Z,21.08
2018-08-14T01:21:52.150Z,21.06
2018-08-14T01:24:21.560Z,21.06
2018-08-14T01:26:51.499Z,21.16
2018-08-14T01:29:23.316Z,21.14
2018-08-14T01:31:53.208Z,20.76
2018-08-14T01:34:23.784Z,20.98
2018-08-14T01:36:54.226Z,21.03
2018-08-14T01:39:24.132Z,21.04
2018-08-14T01:44:32.753Z,21.03
2018-08-14T01:47:02.483Z,21.07
2018-08-14T01:49:32.697Z,21.07
2018-08-14T01:52:04.483Z,21.02
2018-08-14T01:54:33.966Z,20.95
2018-08-14T01:57:03.569Z,21.03
2018-08-14T01:59:33.218Z,21.01
2018-08-14T02:02:03.016Z,21.02
2018-08-14T02:04:32.399Z,21.02
2018-08-14T02:07:02.591Z,20.96
2018-08-14T02:09:31.869Z,21.01
2018-08-14T02:12:03.224Z,20.94
2018-08-14T02:14:34.888Z,20.89
2018-08-14T02:17:04.231Z,20.93
2018-08-14T02:19:35.005Z,20.96
2018-08-14T02:22:05.835Z,20.96
2018-08-14T02:24:35.902Z,21.05
2018-08-14T02:27:08.908Z,20.98
2018-08-14T02:29:38.245Z,20.95
2018-08-14T02:32:09.594Z,20.99
2018-08-14T02:34:40.018Z,21.00
2018-08-14T02:37:09.693Z,20.98
2018-08-14T02:39:40.827Z,20.97
2018-08-14T02:42:14.422Z,20.96
2018-08-14T02:44:47.458Z,20.88
2018-08-14T02:47:18.097Z,20.85
2018-08-14T02:49:48.233Z,20.75
2018-08-14T02:52:20.140Z,20.84
2018-08-14T02:54:50.826Z,20.81
2018-08-14T02:57:21.221Z,20.80
2018-08-14T02:59:51.478Z,20.86
2018-08-14T03:02:22.667Z,20.70
2018-08-14T03:04:52.592Z,20.86
2018-08-14T03:07:22.198Z,20.73
2018-08-14T03:09:58.832Z,20.68
2018-08-14T03:12:29.214Z,20.67
2018-08-14T03:15:06.189Z,20.69
2018-08-14T03:17:37.246Z,20.75
2018-08-14T03:20:06.991Z,20.82
2018-08-14T03:22:37.830Z,20.76
2018-08-14T03:25:08.939Z,20.68
2018-08-14T03:27:39.950Z,20.73
2018-08-14T03:30:17.296Z,20.69
2018-08-14T03:32:47.258Z,20.80
2018-08-14T03:35:18.300Z,20.73
2018-08-14T03:38:07.981Z,20.77
2018-08-14T03:40:40.104Z,20.87
2018-08-14T03:43:10.607Z,20.81
2018-08-14T03:45:41.065Z,20.84
2018-08-14T03:48:15.454Z,20.84
2018-08-14T03:50:46.634Z,20.76
2018-08-14T03:53:19.305Z,20.87
2018-08-14T03:55:53.306Z,20.78
2018-08-14T03:58:24.100Z,20.79
2018-08-14T04:00:53.633Z,20.81
2018-08-14T04:03:23.318Z,20.84
2018-08-14T04:05:52.692Z,20.86
2018-08-14T04:08:22.101Z,20.86
2018-08-14T04:10:52.239Z,20.81
2018-08-14T04:13:22.488Z,20.68
2018-08-14T04:15:53.084Z,20.68
2018-08-14T04:18:22.754Z,20.67
2018-08-14T04:20:52.116Z,20.63
2018-08-14T04:23:21.558Z,20.63
2018-08-14T04:25:51.284Z,20.66
2018-08-14T04:28:20.837Z,20.70
2018-08-14T04:30:50.750Z,20.70
2018-08-14T04:33:20.599Z,20.62
2018-08-14T04:35:49.990Z,20.57
2018-08-14T04:38:19.307Z,20.66
2018-08-14T04:40:49.209Z,20.75
2018-08-14T04:43:18.536Z,20.75
2018-08-14T04:45:48.795Z,20.77
2018-08-14T04:48:18.901Z,20.82
2018-08-14T04:50:48.465Z,20.86
2018-08-14T04:53:19.326Z,20.78
2018-08-14T04:55:49.399Z,20.74
2018-08-14T04:58:19.272Z,20.75
2018-08-14T05:00:49.204Z,20.81
2018-08-14T05:03:20.566Z,20.70
2018-08-14T05:05:50.164Z,20.75
2018-08-14T05:08:20.008Z,20.82
2018-08-14T05:10:49.998Z,20.78
2018-08-14T05:13:21.606Z,20.77
2018-08-14T05:15:51.381Z,20.78
2018-08-14T05:18:21.607Z,20.67
2018-08-14T05:20:51.501Z,20.56
2018-08-14T05:23:24.267Z,20.50
2018-08-14T05:25:53.683Z,20.62
2018-08-14T05:28:25.231Z,20.63
2018-08-14T05:30:54.838Z,20.55
2018-08-14T05:33:24.303Z,20.21
2018-08-14T05:35:53.740Z,20.11
2018-08-14T05:38:23.272Z,20.08
2018-08-14T05:40:52.681Z,20.03
2018-08-14T05:43:22.644Z,20.08
2018-08-14T05:45:52.453Z,20.01
2018-08-14T05:48:22.126Z,20.02
2018-08-14T05:50:51.652Z,19.93
2018-08-14T05:53:20.961Z,19.92
2018-08-14T05:55:50.503Z,19.90
2018-08-14T05:58:20.877Z,19.99
2018-08-14T06:00:50.641Z,20.04
2018-08-14T06:03:21.133Z,20.12
2018-08-14T06:05:53.770Z,20.22
2018-08-14T06:08:25.716Z,20.32
2018-08-14T06:10:57.017Z,20.32
2018-08-14T06:13:26.944Z,20.41
2018-08-14T06:18:49.786Z,20.40
2018-08-14T06:21:20.115Z,20.51
2018-08-14T06:23:55.124Z,20.38
2018-08-14T06:26:25.145Z,20.45
2018-08-14T06:28:58.608Z,20.51
2018-08-14T06:31:31.286Z,20.53
2018-08-14T06:34:01.720Z,20.65
2018-08-14T06:36:31.540Z,20.62
2018-08-14T06:39:00.972Z,20.56
2018-08-14T06:41:32.303Z,20.44
2018-08-14T06:44:02.112Z,20.38
2018-08-14T06:46:32.930Z,20.49
2018-08-14T06:49:02.401Z,20.57
2018-08-14T06:51:32.163Z,20.75
2018-08-14T06:54:01.884Z,20.77
2018-08-14T06:56:34.926Z,20.64
2018-08-14T06:59:08.825Z,20.76
2018-08-14T07:01:38.517Z,20.69
2018-08-14T07:04:09.015Z,20.74
2018-08-14T07:06:38.620Z,20.83
2018-08-14T07:09:10.197Z,20.98
2018-08-14T07:11:41.002Z,21.09
2018-08-14T07:14:10.809Z,21.07
2018-08-14T07:16:41.254Z,20.76
2018-08-14T07:19:12.219Z,21.33
2018-08-14T07:21:42.027Z,21.29
2018-08-14T07:24:13.760Z,21.21
2018-08-14T07:26:45.356Z,21.21
2018-08-14T07:29:16.975Z,21.29
2018-08-14T07:31:48.432Z,21.29
2018-08-14T07:34:18.026Z,21.33
2018-08-14T07:36:47.509Z,21.38
2018-08-14T07:39:18.774Z,21.43
2018-08-14T07:41:48.242Z,21.46
2018-08-14T07:44:18.248Z,21.34
2018-08-14T07:46:50.388Z,21.17
2018-08-14T07:49:22.562Z,21.02
2018-08-14T07:52:05.129Z,21.21
2018-08-14T07:54:36.816Z,21.17
2018-08-14T07:57:07.138Z,21.30
2018-08-14T07:59:38.300Z,21.39
2018-08-14T08:02:10.484Z,21.42
2018-08-14T08:04:39.842Z,21.48
2018-08-14T08:07:22.606Z,21.58
2018-08-14T08:09:53.014Z,21.56
2018-08-14T08:12:26.247Z,21.70
2018-08-14T08:17:42.716Z,22.14
2018-08-14T08:20:22.388Z,21.67
2018-08-14T08:22:55.047Z,22.07
2018-08-14T08:25:30.739Z,22.27
2018-08-14T08:28:02.783Z,22.21
2018-08-14T08:30:37.699Z,22.06
2018-08-14T08:33:17.231Z,21.96
2018-08-14T08:38:38.810Z,21.88
2018-08-14T08:41:10.538Z,22.18
2018-08-14T08:43:43.843Z,22.60
2018-08-14T08:46:24.659Z,23.03
2018-08-14T08:49:02.642Z,23.03
2018-08-14T08:51:39.242Z,22.84
2018-08-14T08:54:10.815Z,22.81
2018-08-14T08:56:55.331Z,23.20
2018-08-14T08:59:33.908Z,23.42
2018-08-14T09:02:11.989Z,23.26
2018-08-14T09:04:45.664Z,23.41
2018-08-14T09:07:16.666Z,23.43
2018-08-14T09:09:46.298Z,23.35
2018-08-14T09:12:18.755Z,23.31
2018-08-14T09:14:49.936Z,23.52
2018-08-14T09:17:23.523Z,23.73
2018-08-14T09:19:54.463Z,23.68
2018-08-14T09:22:24.329Z,23.62
2018-08-14T09:24:57.782Z,23.62
2018-08-14T09:27:28.249Z,23.67
2018-08-14T09:29:58.529Z,23.61
2018-08-14T09:32:30.925Z,23.59
2018-08-14T09:35:06.291Z,23.56
2018-08-14T09:37:37.388Z,23.66
2018-08-14T09:40:08.722Z,23.46
2018-08-14T09:42:40.043Z,23.36
2018-08-14T09:45:14.201Z,23.63
2018-08-14T09:47:44.703Z,23.90
2018-08-14T09:50:28.782Z,22.93
2018-08-14T09:52:58.675Z,25.56
2018-08-14T09:58:14.255Z,26.44
2018-08-14T10:00:49.832Z,26.16
2018-08-14T10:03:26.889Z,25.36
2018-08-14T10:06:02.265Z,25.45
2018-08-14T10:08:36.575Z,25.02
2018-08-14T10:11:08.483Z,25.00
2018-08-14T10:13:38.899Z,24.83
2018-08-14T10:16:13.734Z,25.00
2018-08-14T10:18:48.664Z,25.13
2018-08-14T10:21:20.515Z,25.69
2018-08-14T10:23:52.300Z,25.86
2018-08-14T10:26:23.128Z,25.62
2018-08-14T10:28:53.861Z,25.60
2018-08-14T10:31:26.774Z,25.81
2018-08-14T10:33:59.427Z,26.26
2018-08-14T10:36:32.516Z,26.77
2018-08-14T10:39:03.184Z,26.52
2018-08-14T10:41:34.757Z,26.84
2018-08-14T10:44:08.858Z,27.20
2018-08-14T10:46:43.708Z,26.75
2018-08-14T10:49:15.464Z,26.53
2018-08-14T10:51:53.273Z,26.12
2018-08-14T10:54:24.741Z,26.36
2018-08-14T10:57:22.502Z,26.43
2018-08-14T10:59:58.297Z,26.14
2018-08-14T11:02:33.318Z,26.22
2018-08-14T11:05:06.641Z,26.34
2018-08-14T11:07:36.660Z,26.51
2018-08-14T11:10:43.836Z,27.10
2018-08-14T11:13:18.465Z,27.45
2018-08-14T11:18:40.044Z,28.34
2018-08-14T11:21:10.463Z,27.74
2018-08-14T11:23:42.069Z,27.95
2018-08-14T11:26:30.449Z,27.33
2018-08-14T11:29:03.248Z,27.14
2018-08-14T11:31:39.375Z,27.54
2018-08-14T11:34:09.270Z,27.75
2018-08-14T11:36:45.532Z,27.89
2018-08-14T11:39:19.492Z,28.01
2018-08-14T11:41:51.715Z,28.40
2018-08-14T11:44:21.355Z,28.75
2018-08-14T11:46:55.033Z,28.42
2018-08-14T11:49:25.931Z,28.11
2018-08-14T11:51:57.001Z,27.85
2018-08-14T11:54:27.374Z,28.09
2018-08-14T11:56:59.600Z,28.19
2018-08-14T11:59:36.304Z,28.71
2018-08-14T12:02:09.232Z,28.70
2018-08-14T12:04:50.774Z,28.29
2018-08-14T12:07:22.098Z,28.97
2018-08-14T12:17:05.011Z,30.22
2018-08-14T12:19:34.936Z,30.04
2018-08-14T12:22:10.056Z,29.95
2018-08-14T12:24:47.118Z,30.05
2018-08-14T12:27:19.237Z,30.27
2018-08-14T12:29:50.795Z,30.21
2018-08-14T12:32:20.643Z,29.91
2018-08-14T12:34:50.973Z,29.51
2018-08-14T12:37:20.378Z,29.94
2018-08-14T12:39:52.420Z,30.16
2018-08-14T12:42:30.551Z,30.75
2018-08-14T12:45:05.601Z,30.70
2018-08-14T12:47:39.543Z,30.87
2018-08-14T12:50:14.351Z,30.79
2018-08-14T12:52:49.580Z,29.88
2018-08-14T12:58:05.303Z,30.31
2018-08-14T13:00:36.611Z,31.07
2018-08-14T13:03:07.840Z,30.99
2018-08-14T13:05:39.000Z,30.58
2018-08-14T13:08:09.095Z,30.56
2018-08-14T13:10:41.209Z,31.07
2018-08-14T13:13:13.113Z,31.39
2018-08-14T13:15:45.563Z,31.19
2018-08-14T13:18:39.081Z,31.63
2018-08-14T13:21:09.177Z,31.41
2018-08-14T13:23:38.748Z,30.79
2018-08-14T13:26:22.443Z,30.39
2018-08-14T13:28:55.225Z,29.89
2018-08-14T13:31:26.447Z,29.27
2018-08-14T13:34:00.311Z,29.23
2018-08-14T13:36:31.471Z,29.43
2018-08-14T13:39:06.557Z,29.75
2018-08-14T13:41:37.742Z,30.61
2018-08-14T13:44:23.431Z,31.20
2018-08-14T13:46:55.465Z,31.58
2018-08-14T13:49:28.976Z,31.42
2018-08-14T13:51:58.569Z,30.64
2018-08-14T13:54:32.513Z,30.05
2018-08-14T13:57:03.175Z,30.08
2018-08-14T13:59:34.020Z,30.24
2018-08-14T14:02:03.815Z,30.78
2018-08-14T14:04:38.963Z,30.89
2018-08-14T14:07:28.341Z,30.60
2018-08-14T14:10:13.663Z,29.96
2018-08-14T14:12:52.479Z,29.50
2018-08-14T14:15:30.180Z,29.26
2018-08-14T14:18:01.661Z,29.11
2018-08-14T14:20:33.015Z,29.14
2018-08-14T14:23:03.067Z,29.27
2018-08-14T14:25:46.971Z,29.52
2018-08-14T14:28:18.787Z,29.58
2018-08-14T14:30:50.218Z,30.04
2018-08-14T14:33:25.707Z,30.14
2018-08-14T14:36:08.131Z,30.55
2018-08-14T14:38:40.377Z,30.67
2018-08-14T14:41:17.156Z,30.90
2018-08-14T14:43:47.478Z,30.98
2018-08-14T14:46:28.310Z,30.76
2018-08-14T14:51:42.491Z,30.49
2018-08-14T14:54:14.425Z,30.34
2018-08-14T14:57:03.276Z,30.48
2018-08-14T14:59:34.418Z,29.76
2018-08-14T15:02:15.863Z,30.26
2018-08-14T15:04:50.468Z,30.38
2018-08-14T15:07:21.854Z,30.20
2018-08-14T15:10:03.405Z,30.10
2018-08-14T15:12:37.288Z,29.81
2018-08-14T15:15:09.314Z,29.56
2018-08-14T15:17:41.685Z,29.71
2018-08-14T15:20:34.532Z,29.94
2018-08-14T15:23:04.508Z,29.96
2018-08-14T15:30:24.983Z,28.80
2018-08-14T15:32:55.162Z,28.61
2018-08-14T15:35:25.911Z,28.62
2018-08-14T15:38:08.808Z,28.22
2018-08-14T15:40:53.849Z,28.10
2018-08-14T15:43:26.894Z,28.25
2018-08-14T15:45:57.945Z,28.13
2018-08-14T15:48:33.961Z,27.87
2018-08-14T15:51:15.065Z,27.91
2018-08-14T15:53:44.410Z,27.65
2018-08-14T15:56:13.897Z,27.76
2018-08-14T15:58:46.200Z,27.62
2018-08-14T16:01:18.116Z,27.41
2018-08-14T16:03:48.636Z,27.42
2018-08-14T16:06:29.016Z,27.09
2018-08-14T16:09:04.284Z,26.74
2018-08-14T16:11:34.184Z,26.56
2018-08-14T16:14:04.824Z,26.68
2018-08-14T16:16:35.001Z,26.85
2018-08-14T16:19:06.099Z,26.85
2018-08-14T16:21:36.010Z,26.60
2018-08-14T16:24:08.612Z,26.76
2018-08-14T16:26:40.934Z,26.89
2018-08-14T16:29:13.056Z,26.77
2018-08-14T16:31:44.207Z,26.78
2018-08-14T16:34:19.296Z,26.80
2018-08-14T16:36:49.582Z,26.60
2018-08-14T16:39:26.934Z,26.47
2018-08-14T16:42:15.653Z,26.26
2018-08-14T16:44:59.268Z,26.08
2018-08-14T16:47:34.226Z,26.02
2018-08-14T16:50:08.504Z,26.00
2018-08-14T16:52:38.396Z,25.90
2018-08-14T16:55:19.462Z,25.80
2018-08-14T17:01:15.008Z,25.68
2018-08-14T17:03:47.944Z,25.64
2018-08-14T17:06:24.819Z,25.62
2018-08-14T17:09:12.568Z,25.67
2018-08-14T17:11:47.770Z,25.58
2018-08-14T17:14:22.126Z,25.64
2018-08-14T17:16:54.439Z,25.62
2018-08-14T17:19:39.146Z,25.73
2018-08-14T17:22:20.743Z,25.64
2018-08-14T17:24:55.403Z,25.58
2018-08-14T17:27:31.764Z,25.61
2018-08-14T17:30:07.449Z,25.70
2018-08-14T17:33:04.449Z,25.60
2018-08-14T17:35:40.239Z,25.58
2018-08-14T17:38:25.021Z,25.61
2018-08-14T17:41:10.709Z,25.69
2018-08-14T17:43:47.789Z,25.67
2018-08-14T17:46:22.016Z,25.59
2018-08-14T17:49:07.748Z,25.48
2018-08-14T17:51:38.510Z,25.57
2018-08-14T17:57:17.552Z,25.58
2018-08-14T17:59:55.183Z,25.62
2018-08-14T18:02:37.948Z,25.57
2018-08-14T18:05:19.091Z,25.60
2018-08-14T18:08:17.856Z,25.50
2018-08-14T18:10:49.980Z,25.37
2018-08-14T18:13:20.290Z,25.51
2018-08-14T18:16:09.281Z,25.58
2018-08-14T18:19:00.722Z,25.41
2018-08-14T18:21:34.826Z,25.41
2018-08-14T18:24:12.083Z,25.28
2018-08-14T18:26:45.008Z,25.25
2018-08-14T18:29:18.017Z,25.29
2018-08-14T18:31:55.006Z,25.27
2018-08-14T18:34:26.957Z,25.10
2018-08-14T18:36:59.538Z,25.08
2018-08-14T18:39:31.677Z,25.07
2018-08-14T18:42:03.603Z,25.06
2018-08-14T18:44:43.491Z,25.09
2018-08-14T18:47:15.555Z,24.96
2018-08-14T18:49:47.181Z,24.94
2018-08-14T18:52:27.347Z,24.89
2018-08-14T18:55:12.334Z,24.88
2018-08-14T18:57:51.508Z,24.99
2018-08-14T19:00:30.761Z,24.98
2018-08-14T19:03:04.348Z,24.83
2018-08-14T19:05:54.565Z,24.75
2018-08-14T19:08:33.331Z,24.70
2018-08-14T19:11:08.367Z,24.63
2018-08-14T19:13:43.483Z,24.51
2018-08-14T19:16:18.970Z,24.58
2018-08-14T19:18:54.151Z,24.66
2018-08-14T19:21:27.946Z,24.11
2018-08-14T19:24:06.667Z,24.58
2018-08-14T19:26:42.494Z,24.62
2018-08-14T19:29:17.781Z,24.73
2018-08-14T19:34:36.343Z,24.73
2018-08-14T19:37:06.870Z,24.67
2018-08-14T19:39:47.643Z,24.67
2018-08-14T19:42:23.280Z,24.60
2018-08-14T19:44:56.465Z,24.51
2018-08-14T19:47:34.129Z,24.41
2018-08-14T19:50:08.628Z,24.35
2018-08-14T19:52:50.903Z,24.27
2018-08-14T19:55:32.024Z,24.37
2018-08-14T19:58:03.723Z,24.38
2018-08-14T20:00:47.034Z,24.31
2018-08-14T20:03:21.286Z,24.22
2018-08-14T20:08:37.417Z,24.24
2018-08-14T20:11:15.393Z,24.25
2018-08-14T20:13:49.786Z,24.24
2018-08-14T20:16:22.410Z,24.15
2018-08-14T20:18:58.270Z,24.15
2018-08-14T20:21:46.537Z,24.20
2018-08-14T20:24:25.455Z,24.19
2018-08-14T20:27:05.816Z,24.16
2018-08-14T20:32:25.966Z,23.97
2018-08-14T20:35:00.006Z,24.06
2018-08-14T20:37:36.736Z,24.08
2018-08-14T20:40:14.488Z,24.18
2018-08-14T20:42:53.919Z,24.13
2018-08-14T20:45:29.518Z,24.09
2018-08-14T20:48:01.083Z,24.08
2018-08-14T20:50:32.448Z,23.84
2018-08-14T20:53:04.631Z,24.05
2018-08-14T20:55:40.458Z,23.94
2018-08-14T20:58:17.893Z,23.88
2018-08-14T21:00:53.447Z,23.85
2018-08-14T21:03:27.534Z,23.57
2018-08-14T21:05:59.746Z,23.43
2018-08-14T21:08:32.700Z,23.47
2018-08-14T21:11:04.366Z,23.42
2018-08-14T21:13:34.530Z,23.32
2018-08-14T21:16:15.070Z,23.37
2018-08-14T21:18:51.447Z,23.34
2018-08-14T21:21:34.453Z,23.35
2018-08-14T21:24:09.819Z,23.22
2018-08-14T21:26:54.485Z,23.24
2018-08-14T21:29:26.609Z,23.33
2018-08-14T21:32:00.059Z,23.38
2018-08-14T21:34:30.860Z,23.24
2018-08-14T21:37:14.729Z,22.98
2018-08-14T21:39:46.766Z,22.92
2018-08-14T21:44:59.548Z,22.95
2018-08-14T21:47:33.661Z,22.97
2018-08-14T21:50:04.041Z,22.95
2018-08-14T21:52:40.229Z,23.00
2018-08-14T21:55:15.020Z,23.07
2018-08-14T21:57:47.582Z,23.10
2018-08-14T22:00:32.338Z,23.15
2018-08-14T22:03:02.792Z,23.19
2018-08-14T22:05:43.750Z,23.11
2018-08-14T22:08:13.970Z,23.07
2018-08-14T22:10:44.761Z,23.01
2018-08-14T22:13:14.773Z,23.03
2018-08-14T22:15:44.815Z,23.11
2018-08-14T22:18:17.862Z,23.07
2018-08-14T22:20:48.430Z,23.03
2018-08-14T22:23:18.211Z,23.02
2018-08-14T22:25:50.630Z,22.90
2018-08-14T22:28:22.289Z,22.76
2018-08-14T22:30:53.235Z,22.74
2018-08-14T22:33:22.663Z,22.62
2018-08-14T22:35:54.208Z,22.57
2018-08-14T22:38:26.682Z,22.60
2018-08-14T22:40:56.634Z,22.54
2018-08-14T22:43:35.560Z,22.39
2018-08-14T22:46:06.061Z,22.40
2018-08-14T22:48:36.223Z,22.38
2018-08-14T22:51:06.068Z,22.38
2018-08-14T22:53:37.044Z,22.44
2018-08-14T22:56:07.792Z,22.35
2018-08-14T22:58:37.772Z,22.28
2018-08-14T23:01:09.404Z,22.19
2018-08-14T23:03:43.898Z,22.19
2018-08-14T23:06:15.091Z,22.18
2018-08-14T23:08:46.615Z,22.21
2018-08-14T23:11:17.412Z,22.26
2018-08-14T23:13:47.403Z,22.34
2018-08-14T23:16:18.155Z,22.36
2018-08-14T23:18:48.343Z,22.39
2018-08-14T23:21:17.774Z,22.39
2018-08-14T23:23:47.514Z,22.38
2018-08-14T23:26:16.850Z,22.47
2018-08-14T23:28:46.847Z,22.61
2018-08-14T23:31:17.613Z,22.57
2018-08-14T23:33:47.729Z,22.54
2018-08-14T23:36:18.143Z,22.60
2018-08-14T23:38:50.246Z,22.52
2018-08-14T23:41:19.865Z,22.54
2018-08-14T23:43:49.546Z,22.61
2018-08-14T23:46:19.611Z,22.65
2018-08-14T23:48:50.301Z,22.70
2018-08-14T23:51:19.982Z,22.67
2018-08-14T23:53:50.166Z,22.69
2018-08-14T23:56:28.751Z,22.77
2018-08-14T23:58:58.842Z,22.80
